Time;durP1;ratioP1;P1;durP2;ratioP2;P2;SDS_P1;SDS_P2;PMS_P1;PMS_P2;Temp;Humidity;BMP_temperature;BMP_pressure;BME280_temperature;BME280_humidity;BME280_pressure;Samples;Min_cycle;Max_cycle;Signal;HPM_P1;HPM_P2
2022/05/15 00:01:46;;;;;;;4.37;2.53;;;17.80;25.60;;;;;;10362826;28;20238;-76
2022/05/15 00:06:49;;;;;;;4.03;2.60;;;17.70;25.30;;;;;;10358098;28;20234;-75
2022/05/15 00:11:53;;;;;;;3.83;2.50;;;17.50;25.40;;;;;;10363171;28;20229;-75
2022/05/15 00:16:57;;;;;;;2.93;1.90;;;17.40;25.90;;;;;;10357547;28;20244;-76
2022/05/15 00:22:00;;;;;;;2.33;2.00;;;17.30;25.50;;;;;;10358277;28;20222;-76
2022/05/15 00:27:05;;;;;;;2.40;2.20;;;17.10;25.80;;;;;;10356903;28;20341;-78
2022/05/15 00:32:09;;;;;;;2.23;2.03;;;17.00;26.30;;;;;;10358912;28;20721;-76
2022/05/15 00:37:12;;;;;;;2.30;2.10;;;16.90;26.10;;;;;;10361267;28;20256;-76
2022/05/15 00:42:17;;;;;;;4.57;2.30;;;16.90;26.20;;;;;;10356575;28;20230;-76
2022/05/15 00:47:20;;;;;;;1.80;1.70;;;16.90;26.50;;;;;;10356437;28;20761;-76
2022/05/15 00:52:27;;;;;;;2.60;2.20;;;16.90;26.10;;;;;;10357906;28;20229;-76
2022/05/15 00:57:37;;;;;;;2.30;2.10;;;16.90;26.90;;;;;;10359686;28;20242;-77
2022/05/15 01:02:43;;;;;;;3.07;2.17;;;16.90;27.10;;;;;;10363268;28;20226;-77
2022/05/15 01:07:46;;;;;;;2.17;2.07;;;16.80;26.60;;;;;;10359893;28;20226;-76
2022/05/15 01:12:52;;;;;;;3.17;2.20;;;16.80;26.40;;;;;;10356089;28;20305;-76
2022/05/15 01:17:55;;;;;;;2.40;1.90;;;16.70;26.70;;;;;;10359877;28;20234;-76
2022/05/15 01:23:01;;;;;;;2.67;2.00;;;16.70;26.50;;;;;;10363002;28;20584;-76
2022/05/15 01:28:14;;;;;;;3.17;2.30;;;16.70;27.10;;;;;;10365853;28;20298;-75
2022/05/15 01:33:17;;;;;;;2.00;1.90;;;16.70;27.20;;;;;;10373201;28;20234;-78
2022/05/15 01:38:22;;;;;;;2.60;2.07;;;16.70;26.80;;;;;;10368173;28;20233;-76
2022/05/15 01:43:25;;;;;;;1.87;1.73;;;16.60;27.00;;;;;;10366806;28;20236;-76
2022/05/15 01:48:31;;;;;;;2.00;1.87;;;16.60;26.60;;;;;;10368053;28;20224;-76
2022/05/15 01:53:36;;;;;;;3.23;2.00;;;16.50;27.20;;;;;;10367050;28;20232;-77
2022/05/15 01:58:40;;;;;;;2.87;2.10;;;16.40;27.00;;;;;;10365982;28;20305;-76
2022/05/15 02:03:43;;;;;;;2.77;2.30;;;16.40;26.90;;;;;;10361809;28;20230;-76
2022/05/15 02:08:48;;;;;;;3.73;2.33;;;16.30;26.80;;;;;;10361316;28;20231;-76
2022/05/15 02:13:52;;;;;;;1.97;1.80;;;16.10;27.20;;;;;;10369589;28;21013;-77
2022/05/15 02:18:55;;;;;;;1.87;1.77;;;16.10;27.10;;;;;;10363783;28;20231;-76
2022/05/15 02:24:00;;;;;;;3.23;2.17;;;16.00;27.10;;;;;;10366222;28;20261;-76
2022/05/15 02:29:03;;;;;;;2.33;2.13;;;16.00;27.50;;;;;;10367048;28;20236;-76
2022/05/15 02:34:07;;;;;;;1.70;1.60;;;15.90;27.00;;;;;;10362939;28;20229;-76
2022/05/15 02:39:12;;;;;;;2.53;2.20;;;15.80;27.10;;;;;;10362625;28;20230;-76
2022/05/15 02:44:15;;;;;;;4.07;2.20;;;15.70;27.40;;;;;;10363649;28;20230;-75
2022/05/15 02:54:41;;;;;;;2.67;2.00;;;15.60;27.60;;;;;;10363131;28;20238;-76
2022/05/15 02:59:44;;;;;;;2.00;1.90;;;15.50;27.80;;;;;;10365011;28;20234;-76
2022/05/15 03:04:49;;;;;;;2.67;2.17;;;15.50;27.60;;;;;;10359248;28;20230;-76
2022/05/15 03:09:54;;;;;;;2.47;2.27;;;15.40;27.60;;;;;;10369327;28;20222;-76
2022/05/15 03:14:57;;;;;;;2.13;1.83;;;15.20;28.00;;;;;;10363427;28;20230;-77
2022/05/15 03:20:00;;;;;;;2.50;2.07;;;15.10;27.80;;;;;;10360180;28;20742;-76
2022/05/15 03:25:06;;;;;;;2.37;2.17;;;15.00;27.90;;;;;;10363331;28;20233;-75
2022/05/15 03:30:10;;;;;;;2.03;1.90;;;15.00;28.40;;;;;;10360266;28;20564;-75
2022/05/15 03:35:14;;;;;;;2.20;2.00;;;15.00;28.10;;;;;;10362791;28;20659;-76
2022/05/15 03:40:18;;;;;;;2.30;2.10;;;14.90;28.10;;;;;;10354175;28;20824;-75
2022/05/15 03:45:24;;;;;;;2.40;2.20;;;14.90;28.60;;;;;;10354674;28;20292;-76
2022/05/15 03:50:28;;;;;;;2.47;2.20;;;14.90;28.10;;;;;;10360648;28;20226;-76
2022/05/15 03:55:33;;;;;;;3.47;2.20;;;14.90;28.40;;;;;;10361181;28;20228;-76
2022/05/15 04:00:36;;;;;;;2.27;2.07;;;14.80;28.60;;;;;;10367135;28;20230;-75
2022/05/15 04:05:39;;;;;;;2.30;2.10;;;14.70;28.40;;;;;;10356795;28;20663;-75
2022/05/15 04:10:44;;;;;;;3.00;1.80;;;14.70;28.70;;;;;;10364538;28;20245;-76
2022/05/15 04:15:48;;;;;;;2.00;1.90;;;14.60;29.00;;;;;;10361866;28;20230;-76
2022/05/15 04:20:51;;;;;;;2.87;2.00;;;14.60;28.70;;;;;;10359883;28;20257;-77
2022/05/15 04:25:56;;;;;;;1.90;1.80;;;14.60;28.90;;;;;;10359859;28;20316;-75
2022/05/15 04:30:59;;;;;;;2.60;2.40;;;14.60;29.30;;;;;;10359147;28;20625;-75
2022/05/15 04:36:02;;;;;;;2.93;2.20;;;14.60;29.20;;;;;;10355472;28;20222;-75
2022/05/15 04:41:07;;;;;;;2.30;2.10;;;14.50;29.20;;;;;;10361434;28;20236;-76
2022/05/15 04:46:10;;;;;;;2.50;2.30;;;14.60;29.70;;;;;;10356392;28;20886;-76
2022/05/15 04:51:13;;;;;;;2.53;2.33;;;14.60;29.50;;;;;;10356133;28;20226;-76
2022/05/15 04:56:19;;;;;;;2.67;2.43;;;14.60;29.40;;;;;;10354957;28;20222;-75
2022/05/15 05:01:25;;;;;;;2.80;2.47;;;14.70;30.00;;;;;;10363929;28;20236;-76
2022/05/15 05:06:29;;;;;;;3.70;2.80;;;14.70;29.90;;;;;;10361119;28;20241;-75
2022/05/15 05:11:34;;;;;;;4.50;2.90;;;14.80;30.00;;;;;;10362730;28;20222;-76
2022/05/15 05:16:37;;;;;;;2.67;2.47;;;14.80;30.50;;;;;;10369151;28;20234;-77
2022/05/15 05:21:40;;;;;;;2.30;2.10;;;14.80;30.10;;;;;;10370148;28;20728;-75
2022/05/15 05:26:46;;;;;;;3.90;2.83;;;14.90;30.50;;;;;;10366600;28;20230;-75
2022/05/15 05:31:50;;;;;;;2.90;2.70;;;15.00;31.50;;;;;;10365778;28;20642;-75
2022/05/15 05:36:53;;;;;;;3.10;2.80;;;15.10;31.00;;;;;;10358467;28;21115;-76
2022/05/15 05:41:58;;;;;;;2.80;2.60;;;15.30;31.00;;;;;;10362117;28;20711;-77
2022/05/15 05:47:01;;;;;;;2.90;2.70;;;15.40;31.80;;;;;;10363606;28;20226;-75
2022/05/15 05:52:05;;;;;;;3.23;2.97;;;15.60;31.20;;;;;;10369876;28;20229;-75
2022/05/15 05:57:11;;;;;;;3.60;3.30;;;15.80;31.20;;;;;;10356361;28;21085;-76
2022/05/15 06:02:14;;;;;;;3.37;3.07;;;16.00;32.00;;;;;;10364228;28;20253;-75
2022/05/15 06:07:20;;;;;;;3.03;2.70;;;16.10;31.50;;;;;;10361438;28;20231;-75
2022/05/15 06:12:26;;;;;;;2.73;2.50;;;16.40;31.80;;;;;;10359838;28;20596;-76
2022/05/15 06:17:30;;;;;;;4.53;2.67;;;16.60;32.40;;;;;;10364360;28;20356;-76
2022/05/15 06:22:34;;;;;;;3.00;2.70;;;16.80;32.00;;;;;;10363777;28;20717;-76
2022/05/15 06:27:40;;;;;;;3.53;2.60;;;17.00;31.50;;;;;;10358900;28;20226;-76
2022/05/15 06:32:44;;;;;;;3.27;2.87;;;17.20;32.00;;;;;;10358825;28;20603;-76
2022/05/15 06:37:47;;;;;;;2.80;2.57;;;17.40;31.10;;;;;;10363912;28;20222;-76
2022/05/15 06:42:52;;;;;;;2.70;2.40;;;17.60;31.00;;;;;;10348562;28;20298;-76
2022/05/15 06:47:56;;;;;;;4.27;2.53;;;17.90;31.20;;;;;;10353971;28;20227;-76
2022/05/15 06:52:59;;;;;;;2.50;2.30;;;18.00;30.80;;;;;;10359320;28;20230;-75
2022/05/15 06:58:04;;;;;;;2.93;2.60;;;18.30;31.00;;;;;;10357648;28;20668;-76
2022/05/15 07:03:07;;;;;;;7.07;4.17;;;18.50;31.20;;;;;;10366353;28;20238;-76
2022/05/15 07:08:11;;;;;;;3.40;3.10;;;18.70;30.90;;;;;;10360983;28;20234;-78
2022/05/15 07:13:16;;;;;;;4.90;3.13;;;18.90;30.90;;;;;;10361246;28;20724;-78
2022/05/15 07:18:21;;;;;;;16.97;15.43;;;19.10;30.80;;;;;;10358296;28;20449;-77
2022/05/15 07:23:26;;;;;;;5.30;4.80;;;19.20;30.70;;;;;;10359023;28;20225;-76
2022/05/15 07:28:35;;;;;;;2.90;2.70;;;19.50;30.60;;;;;;10351895;28;20289;-75
2022/05/15 07:33:38;;;;;;;3.83;3.20;;;19.70;30.90;;;;;;10353342;28;20834;-76
2022/05/15 07:38:41;;;;;;;3.00;2.80;;;19.90;30.50;;;;;;10357616;28;20233;-77
2022/05/15 07:43:46;;;;;;;3.47;3.17;;;20.10;30.60;;;;;;10355051;28;20234;-76
2022/05/15 07:48:49;;;;;;;2.90;2.67;;;20.30;30.50;;;;;;10345524;28;20232;-77
2022/05/15 07:53:52;;;;;;;13.50;12.47;;;20.50;30.50;;;;;;10339455;28;20230;-78
2022/05/15 07:58:57;;;;;;;3.33;2.50;;;20.80;30.60;;;;;;10345046;28;20226;-79
2022/05/15 08:04:00;;;;;;;3.60;2.70;;;21.10;30.60;;;;;;10343741;28;20635;-76
2022/05/15 08:09:06;;;;;;;3.73;3.10;;;21.30;30.20;;;;;;10347954;28;20218;-76
2022/05/15 08:14:11;;;;;;;59.30;46.97;;;21.50;30.20;;;;;;10348727;28;20241;-76
2022/05/15 08:24:36;;;;;;;1261.03;392.07;;;22.20;29.90;;;;;;10340620;28;20230;-76
2022/05/15 08:29:41;;;;;;;108.53;44.63;;;22.60;29.60;;;;;;10346790;28;20232;-76
2022/05/15 08:34:45;;;;;;;39.73;25.33;;;22.80;28.70;;;;;;10340175;28;20230;-76
2022/05/15 08:39:48;;;;;;;12.60;8.40;;;23.10;28.90;;;;;;10345850;28;20646;-76
2022/05/15 08:44:59;;;;;;;25.10;22.90;;;23.40;28.60;;;;;;10337588;28;20241;-76
2022/05/15 08:50:05;;;;;;;12.40;11.30;;;23.60;28.00;;;;;;10342750;28;20222;-76
2022/05/15 08:55:12;;;;;;;5.13;3.30;;;23.90;27.90;;;;;;10347622;28;20256;-77
2022/05/15 09:00:21;;;;;;;4.17;3.87;;;24.10;27.90;;;;;;10349498;28;20227;-76
2022/05/15 09:05:27;;;;;;;3.20;2.37;;;24.40;27.30;;;;;;10344858;28;20726;-77
2022/05/15 09:10:37;;;;;;;2.40;2.20;;;24.70;27.60;;;;;;10342199;28;20439;-73
2022/05/15 09:15:57;;;;;;;6.57;6.07;;;24.90;26.80;;;;;;10345745;28;20234;-76
2022/05/15 09:21:05;;;;;;;2.47;2.10;;;25.20;27.00;;;;;;10338961;28;20317;-76
2022/05/15 09:26:17;;;;;;;2.90;2.67;;;25.40;26.80;;;;;;10342589;28;20230;-74
2022/05/15 09:31:25;;;;;;;2.57;1.90;;;25.70;26.20;;;;;;10352040;28;20233;-75
2022/05/15 09:36:31;;;;;;;2.30;2.10;;;26.00;26.20;;;;;;10349023;28;20813;-75
2022/05/15 09:47:01;;;;;;;1.90;1.77;;;26.30;25.60;;;;;;10359763;28;20608;-75
2022/05/15 09:52:12;;;;;;;1.97;1.83;;;26.40;24.40;;;;;;10363022;28;20234;-72
2022/05/15 09:57:19;;;;;;;4.40;1.90;;;26.50;24.20;;;;;;10359545;28;20245;-75
2022/05/15 10:02:25;;;;;;;2.07;1.93;;;26.80;24.40;;;;;;10361474;28;20245;-72
2022/05/15 10:07:35;;;;;;;1.90;1.80;;;26.90;24.20;;;;;;10356414;28;21136;-72
2022/05/15 10:12:39;;;;;;;2.10;1.90;;;27.10;23.70;;;;;;10355904;28;20230;-72
2022/05/15 10:17:51;;;;;;;2.53;2.33;;;27.20;23.50;;;;;;10360383;28;20226;-73
2022/05/15 10:23:01;;;;;;;1.63;1.53;;;27.30;22.70;;;;;;10365691;28;20227;-74
2022/05/15 10:28:17;;;;;;;2.53;1.87;;;27.40;22.50;;;;;;10360172;28;20301;-72
2022/05/15 10:33:22;;;;;;;46.10;42.17;;;27.40;21.70;;;;;;10361485;28;20253;-71
2022/05/15 10:38:38;;;;;;;2.80;2.60;;;27.50;22.30;;;;;;10356454;28;20231;-72
2022/05/15 10:43:59;;;;;;;1.77;1.67;;;27.60;21.30;;;;;;10354527;28;20236;-72
2022/05/15 10:49:15;;;;;;;2.90;2.60;;;27.80;20.60;;;;;;10357568;28;20225;-72
2022/05/15 10:59:56;;;;;;;1.90;1.70;;;28.10;20.10;;;;;;10357968;28;20237;-72
2022/05/15 11:05:08;;;;;;;1.97;1.70;;;28.30;20.20;;;;;;10356685;28;20606;-73
2022/05/15 11:10:20;;;;;;;1.80;1.70;;;28.40;20.00;;;;;;10358923;28;20226;-73
2022/05/15 11:15:42;;;;;;;1.70;1.57;;;28.50;19.50;;;;;;10356591;28;20238;-72
2022/05/15 11:20:53;;;;;;;2.00;1.90;;;28.50;19.80;;;;;;10359510;28;20236;-73
2022/05/15 11:26:00;;;;;;;1.60;1.50;;;28.60;19.10;;;;;;10356066;28;20226;-73
2022/05/15 11:31:09;;;;;;;1.90;1.63;;;28.70;19.80;;;;;;10358808;28;20784;-73
2022/05/15 11:36:16;;;;;;;1.63;1.53;;;28.70;19.70;;;;;;10352667;28;20229;-73
2022/05/15 11:42:09;;;;;;;2.70;1.90;;;28.70;19.20;;;;;;10355061;28;20237;-74
2022/05/15 11:47:31;;;;;;;2.87;1.60;;;28.80;19.70;;;;;;10368880;28;20222;-74
2022/05/15 11:52:41;;;;;;;1.87;1.60;;;28.90;19.30;;;;;;10375333;28;20596;-74
2022/05/15 11:57:46;;;;;;;2.03;1.60;;;29.00;19.10;;;;;;10355700;28;20226;-74
2022/05/15 12:02:58;;;;;;;1.73;1.63;;;29.00;19.70;;;;;;10356480;28;20679;-74
2022/05/15 12:08:25;;;;;;;2.03;1.60;;;29.00;19.00;;;;;;10369080;28;20214;-74
2022/05/15 12:13:41;;;;;;;3.03;1.60;;;28.90;18.60;;;;;;10351748;28;20268;-74
2022/05/15 12:18:47;;;;;;;2.57;1.70;;;28.90;18.20;;;;;;10361596;28;20217;-74
2022/05/15 12:29:28;;;;;;;2.37;1.50;;;28.90;18.00;;;;;;10359654;28;20226;-75
2022/05/15 12:34:35;;;;;;;2.13;1.50;;;28.80;17.10;;;;;;10360387;28;20244;-74
2022/05/15 12:39:43;;;;;;;2.03;1.67;;;28.80;17.90;;;;;;10363383;28;20226;-75
2022/05/15 12:44:46;;;;;;;1.60;1.50;;;28.80;17.70;;;;;;10356276;28;20850;-74
2022/05/15 12:50:00;;;;;;;1.50;1.40;;;29.00;18.80;;;;;;10360660;28;20260;-74
2022/05/15 12:55:07;;;;;;;2.17;1.60;;;29.00;17.60;;;;;;10362528;28;20232;-73
2022/05/15 13:00:13;;;;;;;1.50;1.40;;;29.10;17.20;;;;;;10362511;28;20232;-75
2022/05/15 13:05:23;;;;;;;1.50;1.40;;;29.10;16.80;;;;;;10363527;28;20236;-74
2022/05/15 13:10:30;;;;;;;2.00;1.70;;;29.10;16.30;;;;;;10364578;28;20305;-74
2022/05/15 13:15:35;;;;;;;1.63;1.53;;;29.10;16.60;;;;;;10358883;28;20236;-75
2022/05/15 13:20:40;;;;;;;1.50;1.40;;;29.10;16.70;;;;;;10370308;28;20729;-73
2022/05/15 13:25:49;;;;;;;1.60;1.50;;;29.10;16.70;;;;;;10367930;28;20232;-73
2022/05/15 13:30:53;;;;;;;1.60;1.50;;;29.10;16.20;;;;;;10368853;28;20599;-74
2022/05/15 13:36:00;;;;;;;1.80;1.40;;;29.20;17.00;;;;;;10372796;28;20241;-73
2022/05/15 13:46:32;;;;;;;1.40;1.20;;;29.30;15.90;;;;;;10364752;28;21465;-74
2022/05/15 13:51:40;;;;;;;1.40;1.30;;;29.40;16.20;;;;;;10366167;28;20253;-74
2022/05/15 13:56:47;;;;;;;1.57;1.37;;;29.50;15.80;;;;;;10367722;28;20238;-74
2022/05/15 14:02:06;;;;;;;2.73;1.43;;;29.50;15.40;;;;;;10362900;28;20241;-74
2022/05/15 14:07:26;;;;;;;1.47;1.37;;;29.50;15.60;;;;;;10358601;28;20595;-74
2022/05/15 14:12:44;;;;;;;1.50;1.40;;;29.50;15.30;;;;;;10354287;28;20456;-74
2022/05/15 14:17:50;;;;;;;2.50;1.40;;;29.60;15.70;;;;;;10362919;28;21217;-75
2022/05/15 14:22:53;;;;;;;2.80;1.47;;;29.60;15.60;;;;;;10363114;28;20714;-74
2022/05/15 14:27:58;;;;;;;3.03;1.40;;;29.70;15.60;;;;;;10368669;28;20233;-74
2022/05/15 14:33:03;;;;;;;1.40;1.30;;;29.70;14.90;;;;;;10360722;28;20621;-74
2022/05/15 14:38:07;;;;;;;1.40;1.30;;;29.70;15.00;;;;;;10367059;28;20233;-75
2022/05/15 14:43:19;;;;;;;1.53;1.40;;;29.70;15.20;;;;;;10361915;28;20257;-74
2022/05/15 14:48:25;;;;;;;3.33;1.57;;;29.80;14.80;;;;;;10364890;28;20236;-74
2022/05/15 14:53:31;;;;;;;1.60;1.50;;;29.80;14.90;;;;;;10362237;28;20723;-75
2022/05/15 14:58:38;;;;;;;1.30;1.20;;;29.90;14.90;;;;;;10355919;28;20230;-74
2022/05/15 15:03:41;;;;;;;1.40;1.30;;;29.90;14.90;;;;;;10356123;28;20234;-74
2022/05/15 15:08:45;;;;;;;1.50;1.40;;;30.00;15.10;;;;;;10364738;28;20226;-74
2022/05/15 15:13:52;;;;;;;3.03;1.50;;;30.00;14.90;;;;;;10357276;28;20234;-75
2022/05/15 15:18:55;;;;;;;1.40;1.30;;;30.00;13.90;;;;;;10363833;28;20253;-74
2022/05/15 15:23:59;;;;;;;1.30;1.20;;;29.90;14.70;;;;;;10368544;28;20230;-75
2022/05/15 15:29:05;;;;;;;1.57;1.30;;;30.00;14.60;;;;;;10352654;28;20254;-73
2022/05/15 15:34:10;;;;;;;1.60;1.50;;;30.00;13.90;;;;;;10357978;28;20230;-74
2022/05/15 15:39:13;;;;;;;1.60;1.50;;;30.00;14.20;;;;;;10358891;28;20252;-74
2022/05/15 15:44:19;;;;;;;1.43;1.33;;;30.10;14.60;;;;;;10355302;28;20749;-74
2022/05/15 15:49:22;;;;;;;1.30;1.10;;;30.20;13.90;;;;;;10350634;28;20537;-72
2022/05/15 15:54:25;;;;;;;1.50;1.40;;;30.20;14.20;;;;;;10341936;28;20600;-72
2022/05/15 15:59:30;;;;;;;1.63;1.30;;;30.30;14.10;;;;;;10348052;28;20233;-72
2022/05/15 16:04:33;;;;;;;1.40;1.30;;;30.30;13.70;;;;;;10344990;28;20230;-72
2022/05/15 16:09:38;;;;;;;1.57;1.47;;;30.30;13.90;;;;;;10345651;28;20226;-72
2022/05/15 16:14:43;;;;;;;1.70;1.60;;;30.30;13.50;;;;;;10349173;28;20241;-72
2022/05/15 16:19:46;;;;;;;1.87;1.60;;;30.20;13.20;;;;;;10349105;28;20227;-72
2022/05/15 16:24:51;;;;;;;1.67;1.57;;;30.20;13.50;;;;;;10349163;28;20226;-72
2022/05/15 16:29:58;;;;;;;2.40;1.43;;;30.10;13.10;;;;;;10352165;28;20225;-72
2022/05/15 16:35:02;;;;;;;1.60;1.50;;;29.90;13.10;;;;;;10351471;28;20233;-72
2022/05/15 16:40:07;;;;;;;1.40;1.30;;;29.80;13.60;;;;;;10347626;28;20923;-71
2022/05/15 16:45:15;;;;;;;1.40;1.30;;;29.80;13.70;;;;;;10348837;28;20228;-71
2022/05/15 16:50:20;;;;;;;1.60;1.50;;;29.80;13.50;;;;;;10354853;28;20580;-71
2022/05/15 16:55:26;;;;;;;1.50;1.40;;;29.80;13.90;;;;;;10349244;28;20711;-71
2022/05/15 17:00:30;;;;;;;1.70;1.60;;;29.80;14.00;;;;;;10348568;28;20222;-72
2022/05/15 17:05:34;;;;;;;1.50;1.40;;;29.80;13.70;;;;;;10353314;28;20320;-72
2022/05/15 17:10:38;;;;;;;1.50;1.40;;;29.80;14.10;;;;;;10351716;28;20226;-72
2022/05/15 17:15:43;;;;;;;2.17;1.70;;;29.70;13.70;;;;;;10348640;28;20230;-71
2022/05/15 17:20:47;;;;;;;1.57;1.47;;;29.70;13.50;;;;;;10348407;28;20895;-71
2022/05/15 17:25:51;;;;;;;4.67;2.17;;;29.70;14.00;;;;;;10344273;28;20238;-71
2022/05/15 17:36:16;;;;;;;5.10;4.70;;;29.70;14.20;;;;;;10342854;28;20248;-71
2022/05/15 17:41:19;;;;;;;5.80;4.50;;;29.70;14.30;;;;;;10338650;28;20229;-71
2022/05/15 17:46:24;;;;;;;3.40;3.20;;;29.80;14.50;;;;;;10352610;28;20227;-73
2022/05/15 17:51:27;;;;;;;3.27;2.20;;;29.80;14.40;;;;;;10334483;28;20285;-73
2022/05/15 17:56:31;;;;;;;2.07;1.80;;;29.80;14.50;;;;;;10353186;28;20227;-73
2022/05/15 18:01:38;;;;;;;1.23;1.23;;;29.70;14.40;;;;;;10349167;28;20238;-73
2022/05/15 18:06:41;;;;;;;1.80;1.70;;;29.70;14.40;;;;;;10359226;28;20633;-74
2022/05/15 18:11:45;;;;;;;2.50;1.67;;;29.60;14.70;;;;;;10381033;28;20267;-73
2022/05/15 18:16:55;;;;;;;2.27;1.60;;;29.50;15.40;;;;;;10353932;28;20321;-76
2022/05/15 18:21:58;;;;;;;2.30;1.60;;;29.40;14.70;;;;;;10352471;28;20233;-71
2022/05/15 18:27:01;;;;;;;1.90;1.80;;;29.30;15.10;;;;;;10355355;28;20237;-74
2022/05/15 18:32:07;;;;;;;1.60;1.47;;;29.20;15.30;;;;;;10350866;28;20689;-73
2022/05/15 18:37:10;;;;;;;1.67;1.53;;;29.00;15.40;;;;;;10354156;28;20812;-72
2022/05/15 18:42:16;;;;;;;1.70;1.60;;;28.80;15.40;;;;;;10363018;28;21057;-72
2022/05/15 18:47:28;;;;;;;1.60;1.50;;;28.60;15.80;;;;;;10361677;28;20258;-71
2022/05/15 18:57:57;;;;;;;1.80;1.70;;;28.30;15.90;;;;;;10363718;28;20309;-73
2022/05/15 19:03:02;;;;;;;1.80;1.70;;;28.10;15.90;;;;;;10359629;28;20230;-71
2022/05/15 19:08:06;;;;;;;1.37;1.30;;;28.00;16.20;;;;;;10357378;28;20763;-72
2022/05/15 19:13:09;;;;;;;1.77;1.67;;;27.80;16.40;;;;;;10354713;28;20235;-74
2022/05/15 19:18:14;;;;;;;4.70;1.90;;;27.70;16.70;;;;;;10391545;28;20728;-71
2022/05/15 19:23:17;;;;;;;2.70;2.50;;;27.50;17.00;;;;;;10405123;28;20230;-73
2022/05/15 19:28:21;;;;;;;3.30;2.90;;;27.30;16.90;;;;;;10403532;28;20248;-73
2022/05/15 19:33:26;;;;;;;2.93;2.73;;;27.10;17.10;;;;;;10407888;28;20240;-73
2022/05/15 19:38:29;;;;;;;3.80;2.93;;;26.80;17.40;;;;;;10408177;28;20603;-72
2022/05/15 19:43:33;;;;;;;4.00;2.60;;;26.60;17.50;;;;;;10405168;28;20226;-73
2022/05/15 19:48:38;;;;;;;2.90;2.60;;;26.40;17.70;;;;;;10364677;28;20232;-75
2022/05/15 19:53:42;;;;;;;2.40;2.20;;;26.20;18.00;;;;;;10364989;28;20230;-75
2022/05/15 19:58:45;;;;;;;2.33;2.13;;;26.00;18.00;;;;;;10367405;28;20268;-76
2022/05/15 20:03:50;;;;;;;2.37;2.20;;;25.80;18.30;;;;;;10366752;28;20604;-75
2022/05/15 20:14:14;;;;;;;2.30;2.10;;;25.40;18.70;;;;;;10366749;28;20222;-75
2022/05/15 20:19:19;;;;;;;2.50;2.10;;;25.20;18.60;;;;;;10366616;28;20238;-75
2022/05/15 20:24:22;;;;;;;1.83;1.73;;;25.00;19.00;;;;;;10365818;28;20234;-75
2022/05/15 20:29:26;;;;;;;2.00;1.90;;;24.80;18.80;;;;;;10366000;28;20226;-75
2022/05/15 20:34:31;;;;;;;1.83;1.73;;;24.70;19.10;;;;;;10365818;28;20248;-75
2022/05/15 20:39:34;;;;;;;3.00;2.10;;;24.50;19.50;;;;;;10366225;28;20230;-74
2022/05/15 20:44:38;;;;;;;2.20;2.10;;;24.30;19.20;;;;;;10365222;28;20250;-75
2022/05/15 20:49:42;;;;;;;2.23;2.03;;;24.00;19.30;;;;;;10364336;28;20245;-75
2022/05/15 20:54:45;;;;;;;2.43;2.17;;;23.70;19.70;;;;;;10361652;28;20253;-75
2022/05/15 20:59:49;;;;;;;3.20;2.20;;;23.50;19.60;;;;;;10356455;28;20229;-75
2022/05/15 21:04:53;;;;;;;2.63;1.90;;;23.30;20.00;;;;;;10355788;28;20222;-74
2022/05/15 21:09:57;;;;;;;2.00;1.90;;;23.10;20.40;;;;;;10357487;28;20606;-75
2022/05/15 21:15:00;;;;;;;3.43;2.00;;;23.00;20.50;;;;;;10357602;28;20785;-75
2022/05/15 21:20:05;;;;;;;2.23;2.03;;;22.90;20.50;;;;;;10355631;28;20679;-75
2022/05/15 21:25:10;;;;;;;4.27;2.33;;;22.90;20.80;;;;;;10357387;28;20238;-75
2022/05/15 21:30:13;;;;;;;2.40;2.20;;;22.90;20.90;;;;;;10349159;28;20745;-75
2022/05/15 21:35:18;;;;;;;2.50;2.30;;;22.70;20.60;;;;;;10353515;28;20714;-74
2022/05/15 21:45:43;;;;;;;2.40;2.20;;;22.50;20.90;;;;;;10361939;28;20745;-75
2022/05/15 21:50:48;;;;;;;2.20;2.00;;;22.40;21.10;;;;;;10360683;28;20253;-75
2022/05/15 21:55:51;;;;;;;2.47;2.20;;;22.30;21.60;;;;;;10357861;28;20288;-75
2022/05/15 22:00:57;;;;;;;3.13;2.13;;;22.30;21.30;;;;;;10361406;28;20779;-75
2022/05/15 22:06:07;;;;;;;2.03;1.83;;;22.20;21.60;;;;;;10361017;28;20782;-75
2022/05/15 22:11:12;;;;;;;2.57;2.30;;;22.00;22.10;;;;;;10361931;28;20227;-75
2022/05/15 22:16:16;;;;;;;2.27;2.07;;;21.90;21.80;;;;;;10363371;28;20748;-74
2022/05/15 22:21:24;;;;;;;2.30;2.10;;;21.90;21.80;;;;;;10359513;28;20223;-75
2022/05/15 22:26:29;;;;;;;4.07;2.10;;;21.80;22.20;;;;;;10365069;28;20238;-74
2022/05/15 22:31:33;;;;;;;3.03;2.80;;;21.70;22.10;;;;;;10362679;28;20696;-75
2022/05/15 22:36:38;;;;;;;4.60;2.33;;;21.70;22.00;;;;;;10368290;28;20234;-74
2022/05/15 22:41:41;;;;;;;2.50;2.30;;;21.40;22.40;;;;;;10368106;28;20222;-74
2022/05/15 22:46:44;;;;;;;3.47;2.60;;;21.10;22.30;;;;;;10363383;28;20238;-74
2022/05/15 22:51:49;;;;;;;3.17;2.40;;;20.90;22.50;;;;;;10366716;28;20866;-74
2022/05/15 22:56:52;;;;;;;2.83;2.40;;;20.60;23.10;;;;;;10367289;28;20260;-74
2022/05/15 23:01:56;;;;;;;2.80;2.60;;;20.50;22.90;;;;;;10367669;28;20226;-74
2022/05/15 23:12:21;;;;;;;2.50;2.10;;;20.30;23.70;;;;;;10363016;28;20227;-74
2022/05/15 23:17:24;;;;;;;4.07;2.70;;;20.20;23.40;;;;;;10359978;28;20237;-74
2022/05/15 23:22:29;;;;;;;4.53;2.60;;;20.20;23.70;;;;;;10366779;28;20230;-74
2022/05/15 23:27:32;;;;;;;2.57;2.37;;;20.00;24.00;;;;;;10360649;28;20238;-74
2022/05/15 23:32:35;;;;;;;3.33;2.10;;;20.00;23.90;;;;;;10366297;28;20226;-74
2022/05/15 23:37:40;;;;;;;3.27;2.40;;;19.90;23.70;;;;;;10366268;28;20245;-74
2022/05/15 23:42:44;;;;;;;2.80;2.40;;;19.80;24.40;;;;;;10365141;28;20586;-74
2022/05/15 23:47:48;;;;;;;3.63;2.83;;;19.70;24.20;;;;;;10365887;28;20231;-74
2022/05/15 23:52:52;;;;;;;2.70;2.50;;;19.70;24.50;;;;;;10365950;28;20337;-74
2022/05/15 23:57:56;;;;;;;2.70;2.50;;;19.70;24.90;;;;;;10362726;28;20334;-74
